Дата Пункты Температура Давл., мм. Влажн., % Ветер Погодные явления
Воздуха Воды Направл. Скорость
20.08.15 08:00 Одесса 20.0 23.0 763 61 Пн-С 7 21 час
20.08.15 05:00 Одесса 20.0 23.0 762 53 Пн-С 8 18 часов
20.08.15 02:00 Одесса 20.0 23.0 763 57 Пн-С 5 15 часов
20.08.15 11:00 Одесса 18.0 23.0 762 75 Пн 4 12 часов
20.08.15 08:00 Одесса 18.0 23.0 762 82 Пн 6 09 часов
20.08.15 05:00 Одесса 17.0 23.0 762 79 Пн-С 5 06 часов
20.08.15 02:00 Одесса 20.0 23.0 761 66 Пн-С 10 03 часа
19.08.15 08:00 Одесса 18.0 23.0 760 87 З 1 21 час
19.08.15 05:00 Одесса 21.0 24.0 759 65 Пн 0 18 часов
19.08.15 02:00 Одесса 23.0 24.0 759 52 С 2 15 часов
19.08.15 11:00 Одесса 22.0 23.0 759 60 Пн-С 5 12 часов
19.08.15 08:00 Одесса 18.0 23.0 759 77 Пн 3 09 часов
19.08.15 05:00 Одесса 18.0 24.0 758 81 Пн-С 1 06 часов
19.08.15 02:00 Одесса 20.0 24.0 758 71 Пн-С 3 03 часа
18.08.15 08:00 Одесса 20.0 24.0 757 61 Пн-З 2 21 час
18.08.15 05:00 Одесса 21.0 24.0 756 57 Пн 2 18 часов
18.08.15 02:00 Одесса 22.0 24.0 756 59 Пн 3 15 часов
18.08.15 11:00 Одесса 19.0 24.0 756 75 Пн-З 2 12 часов
18.08.15 08:00 Одесса 20.0 24.0 755 64 Пн 2 09 часов
18.08.15 05:00 Одесса 21.0 24.0 755 67 Пн-С 4 06 часов
Количество строк
351 352 353 354 355 356 357 358 359 360
Page 357 of 481